sensor_id;sensor_type;location;lat;lon;timestamp;P1;durP1;ratioP1;P2;durP2;ratioP2
49840;SDS011;35738;49.890;5.930;2022-07-06T00:01:33;5.78;;;2.00;;
49840;SDS011;35738;49.890;5.930;2022-07-06T00:04:01;2.78;;;1.80;;
49840;SDS011;35738;49.890;5.930;2022-07-06T00:06:29;3.67;;;2.05;;
49840;SDS011;35738;49.890;5.930;2022-07-06T00:08:56;4.93;;;2.28;;
49840;SDS011;35738;49.890;5.930;2022-07-06T00:11:23;3.05;;;1.80;;
49840;SDS011;35738;49.890;5.930;2022-07-06T00:13:49;3.63;;;2.42;;
49840;SDS011;35738;49.890;5.930;2022-07-06T00:16:16;3.60;;;2.30;;
49840;SDS011;35738;49.890;5.930;2022-07-06T00:18:44;4.72;;;2.00;;
49840;SDS011;35738;49.890;5.930;2022-07-06T00:21:10;4.18;;;2.00;;
49840;SDS011;35738;49.890;5.930;2022-07-06T00:23:37;3.20;;;2.15;;
49840;SDS011;35738;49.890;5.930;2022-07-06T00:26:04;4.07;;;2.50;;
49840;SDS011;35738;49.890;5.930;2022-07-06T00:28:31;3.83;;;2.20;;
49840;SDS011;35738;49.890;5.930;2022-07-06T00:30:58;2.25;;;2.08;;
49840;SDS011;35738;49.890;5.930;2022-07-06T00:33:25;3.80;;;2.38;;
49840;SDS011;35738;49.890;5.930;2022-07-06T00:35:51;5.65;;;2.47;;
49840;SDS011;35738;49.890;5.930;2022-07-06T00:38:18;2.63;;;2.10;;
49840;SDS011;35738;49.890;5.930;2022-07-06T00:40:45;2.58;;;2.10;;
49840;SDS011;35738;49.890;5.930;2022-07-06T00:43:12;3.88;;;1.95;;
49840;SDS011;35738;49.890;5.930;2022-07-06T00:45:39;3.20;;;2.03;;
49840;SDS011;35738;49.890;5.930;2022-07-06T00:48:05;3.30;;;2.10;;
49840;SDS011;35738;49.890;5.930;2022-07-06T00:50:33;2.85;;;2.25;;
49840;SDS011;35738;49.890;5.930;2022-07-06T00:53:00;3.03;;;2.60;;
49840;SDS011;35738;49.890;5.930;2022-07-06T00:55:30;2.72;;;2.20;;
49840;SDS011;35738;49.890;5.930;2022-07-06T00:57:58;2.95;;;1.88;;
49840;SDS011;35738;49.890;5.930;2022-07-06T01:00:28;2.67;;;1.90;;
49840;SDS011;35738;49.890;5.930;2022-07-06T01:02:55;3.72;;;2.00;;
49840;SDS011;35738;49.890;5.930;2022-07-06T01:05:22;1.77;;;1.67;;
49840;SDS011;35738;49.890;5.930;2022-07-06T01:07:50;3.28;;;2.15;;
49840;SDS011;35738;49.890;5.930;2022-07-06T01:10:18;3.25;;;2.45;;
49840;SDS011;35738;49.890;5.930;2022-07-06T01:12:46;2.60;;;2.10;;
49840;SDS011;35738;49.890;5.930;2022-07-06T01:15:15;6.10;;;2.65;;
49840;SDS011;35738;49.890;5.930;2022-07-06T01:17:46;3.03;;;2.47;;
49840;SDS011;35738;49.890;5.930;2022-07-06T01:20:14;4.75;;;2.88;;
49840;SDS011;35738;49.890;5.930;2022-07-06T01:22:41;5.60;;;3.03;;
49840;SDS011;35738;49.890;5.930;2022-07-06T01:25:09;3.97;;;2.65;;
49840;SDS011;35738;49.890;5.930;2022-07-06T01:27:36;5.15;;;2.78;;
49840;SDS011;35738;49.890;5.930;2022-07-06T01:30:05;2.95;;;2.53;;
49840;SDS011;35738;49.890;5.930;2022-07-06T01:32:34;3.35;;;2.67;;
49840;SDS011;35738;49.890;5.930;2022-07-06T01:35:01;2.30;;;2.15;;
49840;SDS011;35738;49.890;5.930;2022-07-06T01:37:28;4.57;;;2.63;;
49840;SDS011;35738;49.890;5.930;2022-07-06T01:39:58;3.28;;;2.17;;
49840;SDS011;35738;49.890;5.930;2022-07-06T01:42:26;2.30;;;2.10;;
49840;SDS011;35738;49.890;5.930;2022-07-06T01:44:53;3.42;;;2.33;;
49840;SDS011;35738;49.890;5.930;2022-07-06T01:47:23;3.45;;;2.53;;
49840;SDS011;35738;49.890;5.930;2022-07-06T01:49:50;4.95;;;2.55;;
49840;SDS011;35738;49.890;5.930;2022-07-06T01:52:17;3.00;;;2.45;;
49840;SDS011;35738;49.890;5.930;2022-07-06T01:54:44;4.40;;;2.28;;
49840;SDS011;35738;49.890;5.930;2022-07-06T01:57:11;3.15;;;2.70;;
49840;SDS011;35738;49.890;5.930;2022-07-06T01:59:37;4.75;;;2.80;;
49840;SDS011;35738;49.890;5.930;2022-07-06T02:02:04;3.40;;;3.00;;
49840;SDS011;35738;49.890;5.930;2022-07-06T02:04:31;3.97;;;2.55;;
49840;SDS011;35738;49.890;5.930;2022-07-06T02:06:57;5.85;;;3.28;;
49840;SDS011;35738;49.890;5.930;2022-07-06T02:09:24;4.68;;;2.95;;
49840;SDS011;35738;49.890;5.930;2022-07-06T02:11:51;4.45;;;3.17;;
49840;SDS011;35738;49.890;5.930;2022-07-06T02:14:17;2.70;;;2.15;;
49840;SDS011;35738;49.890;5.930;2022-07-06T02:16:44;3.40;;;2.75;;
49840;SDS011;35738;49.890;5.930;2022-07-06T02:19:11;5.05;;;3.30;;
49840;SDS011;35738;49.890;5.930;2022-07-06T02:21:37;3.05;;;2.70;;
49840;SDS011;35738;49.890;5.930;2022-07-06T02:24:04;6.93;;;3.50;;
49840;SDS011;35738;49.890;5.930;2022-07-06T02:26:31;3.88;;;2.65;;
49840;SDS011;35738;49.890;5.930;2022-07-06T02:28:57;4.38;;;3.60;;
49840;SDS011;35738;49.890;5.930;2022-07-06T02:31:24;6.82;;;3.65;;
49840;SDS011;35738;49.890;5.930;2022-07-06T02:33:51;4.10;;;3.20;;
49840;SDS011;35738;49.890;5.930;2022-07-06T02:36:18;5.20;;;3.47;;
49840;SDS011;35738;49.890;5.930;2022-07-06T02:38:45;3.90;;;3.20;;
49840;SDS011;35738;49.890;5.930;2022-07-06T02:41:11;4.75;;;3.13;;
49840;SDS011;35738;49.890;5.930;2022-07-06T02:43:38;3.92;;;3.60;;
49840;SDS011;35738;49.890;5.930;2022-07-06T02:46:05;3.08;;;2.78;;
49840;SDS011;35738;49.890;5.930;2022-07-06T02:48:32;6.43;;;3.10;;
49840;SDS011;35738;49.890;5.930;2022-07-06T02:50:58;2.83;;;2.58;;
49840;SDS011;35738;49.890;5.930;2022-07-06T02:53:25;4.05;;;2.90;;
49840;SDS011;35738;49.890;5.930;2022-07-06T02:55:52;4.07;;;2.65;;
49840;SDS011;35738;49.890;5.930;2022-07-06T02:58:18;4.30;;;3.58;;
49840;SDS011;35738;49.890;5.930;2022-07-06T03:00:45;5.30;;;3.13;;
49840;SDS011;35738;49.890;5.930;2022-07-06T03:03:12;2.80;;;2.22;;
49840;SDS011;35738;49.890;5.930;2022-07-06T03:05:39;3.42;;;3.03;;
49840;SDS011;35738;49.890;5.930;2022-07-06T03:08:06;5.82;;;3.85;;
49840;SDS011;35738;49.890;5.930;2022-07-06T03:10:32;5.45;;;4.07;;
49840;SDS011;35738;49.890;5.930;2022-07-06T03:12:59;7.35;;;4.47;;
49840;SDS011;35738;49.890;5.930;2022-07-06T03:15:25;6.60;;;4.38;;
49840;SDS011;35738;49.890;5.930;2022-07-06T03:17:52;5.65;;;3.33;;
49840;SDS011;35738;49.890;5.930;2022-07-06T03:20:19;6.00;;;3.72;;
49840;SDS011;35738;49.890;5.930;2022-07-06T03:22:46;5.28;;;3.85;;
49840;SDS011;35738;49.890;5.930;2022-07-06T03:25:12;6.38;;;4.20;;
49840;SDS011;35738;49.890;5.930;2022-07-06T03:27:39;9.05;;;6.50;;
49840;SDS011;35738;49.890;5.930;2022-07-06T03:30:06;6.60;;;5.03;;
49840;SDS011;35738;49.890;5.930;2022-07-06T03:32:39;4.53;;;3.97;;
49840;SDS011;35738;49.890;5.930;2022-07-06T03:35:06;6.43;;;4.07;;
49840;SDS011;35738;49.890;5.930;2022-07-06T03:37:33;5.25;;;4.72;;
49840;SDS011;35738;49.890;5.930;2022-07-06T03:39:59;7.15;;;4.80;;
49840;SDS011;35738;49.890;5.930;2022-07-06T03:42:26;4.18;;;3.55;;
49840;SDS011;35738;49.890;5.930;2022-07-06T03:44:53;8.95;;;4.43;;
49840;SDS011;35738;49.890;5.930;2022-07-06T03:47:20;7.68;;;5.47;;
49840;SDS011;35738;49.890;5.930;2022-07-06T03:49:46;10.90;;;5.75;;
49840;SDS011;35738;49.890;5.930;2022-07-06T03:52:13;10.07;;;6.03;;
49840;SDS011;35738;49.890;5.930;2022-07-06T03:54:40;8.43;;;5.00;;
49840;SDS011;35738;49.890;5.930;2022-07-06T03:57:06;6.00;;;4.40;;
49840;SDS011;35738;49.890;5.930;2022-07-06T03:59:33;7.47;;;4.90;;
49840;SDS011;35738;49.890;5.930;2022-07-06T04:02:00;7.57;;;4.70;;
49840;SDS011;35738;49.890;5.930;2022-07-06T04:04:27;5.10;;;4.15;;
49840;SDS011;35738;49.890;5.930;2022-07-06T04:06:53;7.38;;;4.65;;
49840;SDS011;35738;49.890;5.930;2022-07-06T04:09:20;5.63;;;3.90;;
49840;SDS011;35738;49.890;5.930;2022-07-06T04:11:47;4.15;;;3.55;;
49840;SDS011;35738;49.890;5.930;2022-07-06T04:14:13;11.23;;;6.90;;
49840;SDS011;35738;49.890;5.930;2022-07-06T04:16:40;9.90;;;4.90;;
49840;SDS011;35738;49.890;5.930;2022-07-06T04:19:07;6.22;;;4.93;;
49840;SDS011;35738;49.890;5.930;2022-07-06T04:21:33;6.20;;;4.07;;
49840;SDS011;35738;49.890;5.930;2022-07-06T04:24:00;6.47;;;4.47;;
49840;SDS011;35738;49.890;5.930;2022-07-06T04:26:26;4.70;;;4.30;;
49840;SDS011;35738;49.890;5.930;2022-07-06T04:28:53;6.88;;;5.40;;
49840;SDS011;35738;49.890;5.930;2022-07-06T04:31:20;7.70;;;5.07;;
49840;SDS011;35738;49.890;5.930;2022-07-06T04:33:47;7.97;;;4.88;;
49840;SDS011;35738;49.890;5.930;2022-07-06T04:36:14;5.40;;;4.13;;
49840;SDS011;35738;49.890;5.930;2022-07-06T04:38:40;8.88;;;4.97;;
49840;SDS011;35738;49.890;5.930;2022-07-06T04:41:07;6.68;;;4.50;;
49840;SDS011;35738;49.890;5.930;2022-07-06T04:43:34;7.45;;;4.78;;
49840;SDS011;35738;49.890;5.930;2022-07-06T04:46:00;4.53;;;3.72;;
49840;SDS011;35738;49.890;5.930;2022-07-06T04:48:27;7.40;;;4.63;;
49840;SDS011;35738;49.890;5.930;2022-07-06T04:50:54;9.20;;;5.22;;
49840;SDS011;35738;49.890;5.930;2022-07-06T04:53:20;7.57;;;4.93;;
49840;SDS011;35738;49.890;5.930;2022-07-06T04:55:47;12.63;;;7.30;;
49840;SDS011;35738;49.890;5.930;2022-07-06T04:58:14;7.43;;;4.50;;
49840;SDS011;35738;49.890;5.930;2022-07-06T05:00:40;6.78;;;4.72;;
49840;SDS011;35738;49.890;5.930;2022-07-06T05:03:07;8.13;;;4.88;;
49840;SDS011;35738;49.890;5.930;2022-07-06T05:05:34;7.00;;;4.55;;
49840;SDS011;35738;49.890;5.930;2022-07-06T05:08:00;9.13;;;4.90;;
49840;SDS011;35738;49.890;5.930;2022-07-06T05:10:27;5.13;;;4.00;;
49840;SDS011;35738;49.890;5.930;2022-07-06T05:12:53;10.20;;;4.68;;
49840;SDS011;35738;49.890;5.930;2022-07-06T05:15:22;8.68;;;4.75;;
49840;SDS011;35738;49.890;5.930;2022-07-06T05:17:48;6.97;;;4.53;;
49840;SDS011;35738;49.890;5.930;2022-07-06T05:20:15;8.07;;;4.65;;
49840;SDS011;35738;49.890;5.930;2022-07-06T05:22:41;8.30;;;4.60;;
49840;SDS011;35738;49.890;5.930;2022-07-06T05:25:11;5.55;;;4.15;;
49840;SDS011;35738;49.890;5.930;2022-07-06T05:27:38;7.10;;;4.53;;
49840;SDS011;35738;49.890;5.930;2022-07-06T05:30:06;6.95;;;4.47;;
49840;SDS011;35738;49.890;5.930;2022-07-06T05:32:33;6.82;;;4.07;;
49840;SDS011;35738;49.890;5.930;2022-07-06T05:35:00;5.15;;;3.70;;
49840;SDS011;35738;49.890;5.930;2022-07-06T05:37:46;6.57;;;3.83;;
49840;SDS011;35738;49.890;5.930;2022-07-06T05:40:13;5.35;;;3.88;;
49840;SDS011;35738;49.890;5.930;2022-07-06T05:42:39;5.55;;;3.10;;
49840;SDS011;35738;49.890;5.930;2022-07-06T05:45:06;4.43;;;3.38;;
49840;SDS011;35738;49.890;5.930;2022-07-06T05:47:33;5.43;;;3.10;;
49840;SDS011;35738;49.890;5.930;2022-07-06T05:50:18;5.47;;;3.00;;
49840;SDS011;35738;49.890;5.930;2022-07-06T05:52:54;5.35;;;3.15;;
49840;SDS011;35738;49.890;5.930;2022-07-06T05:55:32;5.10;;;3.00;;
49840;SDS011;35738;49.890;5.930;2022-07-06T05:57:58;3.75;;;2.97;;
49840;SDS011;35738;49.890;5.930;2022-07-06T06:00:26;5.90;;;2.80;;
49840;SDS011;35738;49.890;5.930;2022-07-06T06:02:53;3.08;;;2.10;;
49840;SDS011;35738;49.890;5.930;2022-07-06T06:05:20;3.40;;;2.40;;
49840;SDS011;35738;49.890;5.930;2022-07-06T06:07:50;2.90;;;2.05;;
49840;SDS011;35738;49.890;5.930;2022-07-06T06:10:18;3.97;;;2.03;;
49840;SDS011;35738;49.890;5.930;2022-07-06T06:12:48;5.72;;;2.08;;
49840;SDS011;35738;49.890;5.930;2022-07-06T06:15:14;2.80;;;2.03;;
49840;SDS011;35738;49.890;5.930;2022-07-06T06:17:41;3.65;;;1.92;;
49840;SDS011;35738;49.890;5.930;2022-07-06T06:20:11;2.55;;;1.90;;
49840;SDS011;35738;49.890;5.930;2022-07-06T06:22:49;2.78;;;1.52;;
49840;SDS011;35738;49.890;5.930;2022-07-06T06:25:21;3.60;;;1.83;;
49840;SDS011;35738;49.890;5.930;2022-07-06T06:27:54;2.08;;;1.70;;
49840;SDS011;35738;49.890;5.930;2022-07-06T06:30:21;3.20;;;1.67;;
49840;SDS011;35738;49.890;5.930;2022-07-06T06:32:47;3.83;;;1.88;;
49840;SDS011;35738;49.890;5.930;2022-07-06T06:35:14;2.65;;;1.77;;
49840;SDS011;35738;49.890;5.930;2022-07-06T06:37:41;2.28;;;1.73;;
49840;SDS011;35738;49.890;5.930;2022-07-06T06:40:08;2.33;;;1.60;;
49840;SDS011;35738;49.890;5.930;2022-07-06T06:42:36;3.55;;;1.95;;
49840;SDS011;35738;49.890;5.930;2022-07-06T06:45:04;3.22;;;1.60;;
49840;SDS011;35738;49.890;5.930;2022-07-06T06:47:31;2.97;;;1.42;;
49840;SDS011;35738;49.890;5.930;2022-07-06T06:49:58;3.67;;;2.38;;
49840;SDS011;35738;49.890;5.930;2022-07-06T06:52:25;2.72;;;1.60;;
49840;SDS011;35738;49.890;5.930;2022-07-06T06:55:07;1.95;;;1.67;;
49840;SDS011;35738;49.890;5.930;2022-07-06T06:57:34;5.07;;;2.20;;
49840;SDS011;35738;49.890;5.930;2022-07-06T07:00:01;4.47;;;2.20;;
49840;SDS011;35738;49.890;5.930;2022-07-06T07:02:27;2.97;;;1.80;;
49840;SDS011;35738;49.890;5.930;2022-07-06T07:04:55;3.97;;;1.67;;
49840;SDS011;35738;49.890;5.930;2022-07-06T07:07:21;3.30;;;2.13;;
49840;SDS011;35738;49.890;5.930;2022-07-06T07:09:48;2.10;;;1.60;;
49840;SDS011;35738;49.890;5.930;2022-07-06T07:12:15;3.13;;;1.80;;
49840;SDS011;35738;49.890;5.930;2022-07-06T07:14:43;2.22;;;1.50;;
49840;SDS011;35738;49.890;5.930;2022-07-06T07:17:10;2.75;;;1.50;;
49840;SDS011;35738;49.890;5.930;2022-07-06T07:19:38;1.98;;;1.40;;
49840;SDS011;35738;49.890;5.930;2022-07-06T07:22:05;4.13;;;1.48;;
49840;SDS011;35738;49.890;5.930;2022-07-06T07:24:32;3.05;;;1.40;;
49840;SDS011;35738;49.890;5.930;2022-07-06T07:26:58;2.65;;;1.40;;
49840;SDS011;35738;49.890;5.930;2022-07-06T07:29:25;1.55;;;1.30;;
49840;SDS011;35738;49.890;5.930;2022-07-06T07:31:52;2.53;;;1.45;;
49840;SDS011;35738;49.890;5.930;2022-07-06T07:34:19;1.48;;;1.35;;
49840;SDS011;35738;49.890;5.930;2022-07-06T07:36:45;3.33;;;1.30;;
49840;SDS011;35738;49.890;5.930;2022-07-06T07:39:12;3.63;;;1.30;;
49840;SDS011;35738;49.890;5.930;2022-07-06T07:41:39;5.63;;;1.27;;
49840;SDS011;35738;49.890;5.930;2022-07-06T07:44:05;2.92;;;1.10;;
49840;SDS011;35738;49.890;5.930;2022-07-06T07:46:32;2.20;;;1.30;;
49840;SDS011;35738;49.890;5.930;2022-07-06T07:48:59;2.55;;;1.02;;
49840;SDS011;35738;49.890;5.930;2022-07-06T07:51:26;1.73;;;1.05;;
49840;SDS011;35738;49.890;5.930;2022-07-06T07:53:52;1.30;;;1.13;;
49840;SDS011;35738;49.890;5.930;2022-07-06T07:56:19;1.60;;;1.20;;
49840;SDS011;35738;49.890;5.930;2022-07-06T07:58:47;4.40;;;1.50;;
49840;SDS011;35738;49.890;5.930;2022-07-06T08:01:15;1.67;;;1.15;;
49840;SDS011;35738;49.890;5.930;2022-07-06T08:03:41;2.90;;;1.70;;
49840;SDS011;35738;49.890;5.930;2022-07-06T08:06:08;8.75;;;1.70;;
49840;SDS011;35738;49.890;5.930;2022-07-06T08:08:35;4.15;;;1.30;;
49840;SDS011;35738;49.890;5.930;2022-07-06T08:11:02;1.63;;;1.17;;
49840;SDS011;35738;49.890;5.930;2022-07-06T08:13:43;2.10;;;1.30;;
49840;SDS011;35738;49.890;5.930;2022-07-06T08:16:09;2.60;;;1.33;;
49840;SDS011;35738;49.890;5.930;2022-07-06T08:18:36;3.65;;;1.60;;
49840;SDS011;35738;49.890;5.930;2022-07-06T08:21:03;2.97;;;1.40;;
49840;SDS011;35738;49.890;5.930;2022-07-06T08:23:50;3.45;;;1.40;;
49840;SDS011;35738;49.890;5.930;2022-07-06T08:26:17;2.67;;;1.40;;
49840;SDS011;35738;49.890;5.930;2022-07-06T08:28:44;1.65;;;1.27;;
49840;SDS011;35738;49.890;5.930;2022-07-06T08:31:11;2.22;;;1.23;;
49840;SDS011;35738;49.890;5.930;2022-07-06T08:33:58;2.35;;;1.20;;
49840;SDS011;35738;49.890;5.930;2022-07-06T08:36:25;3.33;;;1.77;;
49840;SDS011;35738;49.890;5.930;2022-07-06T08:38:52;4.13;;;1.38;;
49840;SDS011;35738;49.890;5.930;2022-07-06T08:41:21;2.58;;;1.30;;
49840;SDS011;35738;49.890;5.930;2022-07-06T08:43:51;2.97;;;1.40;;
49840;SDS011;35738;49.890;5.930;2022-07-06T08:46:19;4.40;;;1.30;;
49840;SDS011;35738;49.890;5.930;2022-07-06T08:48:48;2.47;;;1.25;;
49840;SDS011;35738;49.890;5.930;2022-07-06T08:51:15;3.67;;;1.15;;
49840;SDS011;35738;49.890;5.930;2022-07-06T08:53:42;2.20;;;1.30;;
49840;SDS011;35738;49.890;5.930;2022-07-06T08:56:10;1.95;;;1.20;;
49840;SDS011;35738;49.890;5.930;2022-07-06T08:58:37;1.85;;;1.05;;
49840;SDS011;35738;49.890;5.930;2022-07-06T09:01:09;2.30;;;0.95;;
49840;SDS011;35738;49.890;5.930;2022-07-06T09:03:36;2.60;;;1.20;;
49840;SDS011;35738;49.890;5.930;2022-07-06T09:06:08;2.97;;;2.10;;
49840;SDS011;35738;49.890;5.930;2022-07-06T09:08:35;1.60;;;1.13;;
49840;SDS011;35738;49.890;5.930;2022-07-06T09:11:06;4.03;;;1.35;;
49840;SDS011;35738;49.890;5.930;2022-07-06T09:13:33;2.10;;;0.98;;
49840;SDS011;35738;49.890;5.930;2022-07-06T09:16:13;2.55;;;1.27;;
49840;SDS011;35738;49.890;5.930;2022-07-06T09:19:01;3.47;;;2.00;;
49840;SDS011;35738;49.890;5.930;2022-07-06T09:21:31;2.13;;;1.00;;
49840;SDS011;35738;49.890;5.930;2022-07-06T09:24:00;2.80;;;1.23;;
49840;SDS011;35738;49.890;5.930;2022-07-06T09:26:29;1.52;;;0.93;;
49840;SDS011;35738;49.890;5.930;2022-07-06T09:28:56;1.73;;;0.95;;
49840;SDS011;35738;49.890;5.930;2022-07-06T09:31:23;1.17;;;1.08;;
49840;SDS011;35738;49.890;5.930;2022-07-06T09:34:00;1.55;;;1.13;;
49840;SDS011;35738;49.890;5.930;2022-07-06T09:39:18;4.93;;;1.33;;
49840;SDS011;35738;49.890;5.930;2022-07-06T09:41:51;3.88;;;1.25;;
49840;SDS011;35738;49.890;5.930;2022-07-06T09:44:23;6.43;;;1.33;;
49840;SDS011;35738;49.890;5.930;2022-07-06T09:46:52;2.08;;;1.00;;
49840;SDS011;35738;49.890;5.930;2022-07-06T09:49:21;2.67;;;1.10;;
49840;SDS011;35738;49.890;5.930;2022-07-06T09:51:52;4.10;;;1.08;;
49840;SDS011;35738;49.890;5.930;2022-07-06T09:54:21;3.67;;;1.70;;
49840;SDS011;35738;49.890;5.930;2022-07-06T09:56:48;1.95;;;1.67;;
49840;SDS011;35738;49.890;5.930;2022-07-06T09:59:20;3.47;;;1.35;;
49840;SDS011;35738;49.890;5.930;2022-07-06T10:02:15;3.97;;;1.08;;
49840;SDS011;35738;49.890;5.930;2022-07-06T10:04:42;1.73;;;1.13;;
49840;SDS011;35738;49.890;5.930;2022-07-06T10:07:11;3.80;;;1.45;;
49840;SDS011;35738;49.890;5.930;2022-07-06T10:09:38;1.58;;;1.10;;
49840;SDS011;35738;49.890;5.930;2022-07-06T10:12:07;2.88;;;1.30;;
49840;SDS011;35738;49.890;5.930;2022-07-06T10:14:38;2.40;;;0.95;;
49840;SDS011;35738;49.890;5.930;2022-07-06T10:17:06;1.65;;;1.10;;
49840;SDS011;35738;49.890;5.930;2022-07-06T10:19:34;2.22;;;1.20;;
49840;SDS011;35738;49.890;5.930;2022-07-06T10:22:01;4.25;;;1.00;;
49840;SDS011;35738;49.890;5.930;2022-07-06T10:24:29;3.00;;;1.10;;
49840;SDS011;35738;49.890;5.930;2022-07-06T10:27:00;1.63;;;1.13;;
49840;SDS011;35738;49.890;5.930;2022-07-06T10:29:28;2.85;;;1.33;;
49840;SDS011;35738;49.890;5.930;2022-07-06T10:31:56;2.70;;;1.20;;
49840;SDS011;35738;49.890;5.930;2022-07-06T10:34:24;1.40;;;1.30;;
49840;SDS011;35738;49.890;5.930;2022-07-06T10:36:51;2.47;;;1.33;;
49840;SDS011;35738;49.890;5.930;2022-07-06T10:39:34;2.95;;;1.15;;
49840;SDS011;35738;49.890;5.930;2022-07-06T10:45:10;7.53;;;1.88;;
49840;SDS011;35738;49.890;5.930;2022-07-06T10:47:39;2.05;;;1.42;;
49840;SDS011;35738;49.890;5.930;2022-07-06T10:50:06;3.35;;;1.20;;
49840;SDS011;35738;49.890;5.930;2022-07-06T10:53:21;5.18;;;1.25;;
49840;SDS011;35738;49.890;5.930;2022-07-06T10:55:32;4.22;;;1.50;;
49840;SDS011;35738;49.890;5.930;2022-07-06T10:58:01;3.65;;;1.50;;
49840;SDS011;35738;49.890;5.930;2022-07-06T11:00:48;2.53;;;1.15;;
49840;SDS011;35738;49.890;5.930;2022-07-06T11:06:06;3.70;;;1.15;;
49840;SDS011;35738;49.890;5.930;2022-07-06T11:08:45;2.15;;;1.13;;
49840;SDS011;35738;49.890;5.930;2022-07-06T11:11:15;1.90;;;1.30;;
49840;SDS011;35738;49.890;5.930;2022-07-06T11:13:49;2.40;;;1.33;;
49840;SDS011;35738;49.890;5.930;2022-07-06T11:16:17;4.13;;;2.40;;
49840;SDS011;35738;49.890;5.930;2022-07-06T11:18:46;1.95;;;1.30;;
49840;SDS011;35738;49.890;5.930;2022-07-06T11:21:19;2.38;;;1.20;;
49840;SDS011;35738;49.890;5.930;2022-07-06T11:23:47;3.47;;;1.40;;
49840;SDS011;35738;49.890;5.930;2022-07-06T11:26:16;2.50;;;1.20;;
49840;SDS011;35738;49.890;5.930;2022-07-06T11:28:44;4.55;;;1.23;;
49840;SDS011;35738;49.890;5.930;2022-07-06T11:31:12;3.05;;;1.30;;
49840;SDS011;35738;49.890;5.930;2022-07-06T11:33:39;3.88;;;1.35;;
49840;SDS011;35738;49.890;5.930;2022-07-06T11:36:19;1.60;;;1.20;;
49840;SDS011;35738;49.890;5.930;2022-07-06T11:38:49;3.38;;;1.55;;
49840;SDS011;35738;49.890;5.930;2022-07-06T11:41:16;3.28;;;2.08;;
49840;SDS011;35738;49.890;5.930;2022-07-06T11:43:45;4.22;;;1.40;;
49840;SDS011;35738;49.890;5.930;2022-07-06T11:46:21;2.72;;;1.38;;
49840;SDS011;35738;49.890;5.930;2022-07-06T11:48:49;4.72;;;1.50;;
49840;SDS011;35738;49.890;5.930;2022-07-06T11:51:17;3.05;;;1.40;;
49840;SDS011;35738;49.890;5.930;2022-07-06T11:53:45;2.47;;;1.35;;
49840;SDS011;35738;49.890;5.930;2022-07-06T11:56:20;2.03;;;1.30;;
49840;SDS011;35738;49.890;5.930;2022-07-06T11:58:54;2.38;;;1.10;;
49840;SDS011;35738;49.890;5.930;2022-07-06T12:01:22;1.65;;;1.20;;
49840;SDS011;35738;49.890;5.930;2022-07-06T12:03:52;2.28;;;1.20;;
49840;SDS011;35738;49.890;5.930;2022-07-06T12:06:21;3.30;;;1.40;;
49840;SDS011;35738;49.890;5.930;2022-07-06T12:08:50;2.45;;;1.40;;
49840;SDS011;35738;49.890;5.930;2022-07-06T12:11:21;2.20;;;1.25;;
49840;SDS011;35738;49.890;5.930;2022-07-06T12:13:59;2.10;;;1.13;;
49840;SDS011;35738;49.890;5.930;2022-07-06T12:16:31;3.05;;;1.50;;
49840;SDS011;35738;49.890;5.930;2022-07-06T12:19:01;1.33;;;1.13;;
49840;SDS011;35738;49.890;5.930;2022-07-06T12:21:33;3.30;;;1.23;;
49840;SDS011;35738;49.890;5.930;2022-07-06T12:24:00;3.20;;;1.40;;
49840;SDS011;35738;49.890;5.930;2022-07-06T12:26:28;2.42;;;1.45;;
49840;SDS011;35738;49.890;5.930;2022-07-06T12:29:06;3.20;;;1.20;;
49840;SDS011;35738;49.890;5.930;2022-07-06T12:31:37;2.90;;;1.38;;
49840;SDS011;35738;49.890;5.930;2022-07-06T12:34:11;1.35;;;1.15;;
49840;SDS011;35738;49.890;5.930;2022-07-06T12:36:42;5.72;;;1.20;;
49840;SDS011;35738;49.890;5.930;2022-07-06T12:39:13;4.78;;;1.20;;
49840;SDS011;35738;49.890;5.930;2022-07-06T12:41:55;2.22;;;1.20;;
49840;SDS011;35738;49.890;5.930;2022-07-06T12:44:27;4.70;;;1.45;;
49840;SDS011;35738;49.890;5.930;2022-07-06T12:47:06;2.30;;;1.40;;
49840;SDS011;35738;49.890;5.930;2022-07-06T12:49:36;1.90;;;1.40;;
49840;SDS011;35738;49.890;5.930;2022-07-06T12:54:44;1.90;;;1.20;;
49840;SDS011;35738;49.890;5.930;2022-07-06T13:02:18;1.83;;;1.25;;
49840;SDS011;35738;49.890;5.930;2022-07-06T13:04:53;2.53;;;1.70;;
49840;SDS011;35738;49.890;5.930;2022-07-06T13:07:26;3.30;;;1.30;;
49840;SDS011;35738;49.890;5.930;2022-07-06T13:09:54;6.35;;;1.85;;
49840;SDS011;35738;49.890;5.930;2022-07-06T13:12:21;3.58;;;1.33;;
49840;SDS011;35738;49.890;5.930;2022-07-06T13:14:49;3.00;;;1.60;;
49840;SDS011;35738;49.890;5.930;2022-07-06T13:17:16;3.35;;;1.50;;
49840;SDS011;35738;49.890;5.930;2022-07-06T13:19:43;1.52;;;1.20;;
49840;SDS011;35738;49.890;5.930;2022-07-06T13:22:10;2.97;;;1.33;;
49840;SDS011;35738;49.890;5.930;2022-07-06T13:24:37;2.45;;;1.60;;
49840;SDS011;35738;49.890;5.930;2022-07-06T13:27:04;3.60;;;1.50;;
49840;SDS011;35738;49.890;5.930;2022-07-06T13:29:31;1.77;;;1.45;;
49840;SDS011;35738;49.890;5.930;2022-07-06T13:31:58;1.60;;;1.40;;
49840;SDS011;35738;49.890;5.930;2022-07-06T13:34:25;3.20;;;1.58;;
49840;SDS011;35738;49.890;5.930;2022-07-06T13:36:52;2.50;;;1.38;;
49840;SDS011;35738;49.890;5.930;2022-07-06T13:39:19;2.63;;;1.48;;
49840;SDS011;35738;49.890;5.930;2022-07-06T13:41:46;2.25;;;1.60;;
49840;SDS011;35738;49.890;5.930;2022-07-06T13:44:12;2.72;;;1.60;;
49840;SDS011;35738;49.890;5.930;2022-07-06T13:46:40;1.95;;;1.50;;
49840;SDS011;35738;49.890;5.930;2022-07-06T13:49:10;4.65;;;1.52;;
49840;SDS011;35738;49.890;5.930;2022-07-06T13:51:37;2.50;;;1.30;;
49840;SDS011;35738;49.890;5.930;2022-07-06T13:54:05;2.42;;;1.17;;
49840;SDS011;35738;49.890;5.930;2022-07-06T13:56:32;1.67;;;1.30;;
49840;SDS011;35738;49.890;5.930;2022-07-06T13:58:59;3.25;;;1.38;;
49840;SDS011;35738;49.890;5.930;2022-07-06T14:01:26;2.63;;;1.40;;
49840;SDS011;35738;49.890;5.930;2022-07-06T14:03:56;4.43;;;1.50;;
49840;SDS011;35738;49.890;5.930;2022-07-06T14:06:22;2.70;;;2.33;;
49840;SDS011;35738;49.890;5.930;2022-07-06T14:08:49;3.85;;;1.40;;
49840;SDS011;35738;49.890;5.930;2022-07-06T14:11:16;2.33;;;1.08;;
49840;SDS011;35738;49.890;5.930;2022-07-06T14:13:43;2.92;;;1.45;;
49840;SDS011;35738;49.890;5.930;2022-07-06T14:16:09;3.90;;;1.52;;
49840;SDS011;35738;49.890;5.930;2022-07-06T14:18:36;5.35;;;1.70;;
49840;SDS011;35738;49.890;5.930;2022-07-06T14:21:04;3.58;;;1.40;;
49840;SDS011;35738;49.890;5.930;2022-07-06T14:23:30;3.47;;;1.50;;
49840;SDS011;35738;49.890;5.930;2022-07-06T14:25:57;1.98;;;1.45;;
49840;SDS011;35738;49.890;5.930;2022-07-06T14:28:24;3.72;;;1.40;;
49840;SDS011;35738;49.890;5.930;2022-07-06T14:30:51;1.50;;;1.15;;
49840;SDS011;35738;49.890;5.930;2022-07-06T14:33:18;4.32;;;1.20;;
49840;SDS011;35738;49.890;5.930;2022-07-06T14:35:46;5.18;;;1.60;;
49840;SDS011;35738;49.890;5.930;2022-07-06T14:38:15;4.28;;;1.60;;
49840;SDS011;35738;49.890;5.930;2022-07-06T14:40:42;2.38;;;1.35;;
49840;SDS011;35738;49.890;5.930;2022-07-06T14:43:09;1.65;;;1.10;;
49840;SDS011;35738;49.890;5.930;2022-07-06T14:45:44;2.10;;;1.23;;
49840;SDS011;35738;49.890;5.930;2022-07-06T14:48:12;2.60;;;1.35;;
49840;SDS011;35738;49.890;5.930;2022-07-06T14:50:39;1.42;;;1.20;;
49840;SDS011;35738;49.890;5.930;2022-07-06T14:53:06;3.72;;;1.40;;
49840;SDS011;35738;49.890;5.930;2022-07-06T14:55:32;3.28;;;1.20;;
49840;SDS011;35738;49.890;5.930;2022-07-06T14:57:59;4.07;;;2.92;;
49840;SDS011;35738;49.890;5.930;2022-07-06T15:00:26;4.10;;;1.50;;
49840;SDS011;35738;49.890;5.930;2022-07-06T15:02:53;5.03;;;2.03;;
49840;SDS011;35738;49.890;5.930;2022-07-06T15:05:19;3.05;;;1.38;;
49840;SDS011;35738;49.890;5.930;2022-07-06T15:07:47;4.07;;;1.38;;
49840;SDS011;35738;49.890;5.930;2022-07-06T15:10:20;1.30;;;1.20;;
49840;SDS011;35738;49.890;5.930;2022-07-06T15:12:47;2.03;;;1.58;;